createdAt,value
2022-10-26T00:01:39.030Z,1.00
2022-10-26T00:04:06.872Z,1.10
2022-10-26T00:06:34.691Z,1.40
2022-10-26T00:09:06.660Z,1.10
2022-10-26T00:11:35.888Z,1.00
2022-10-26T00:14:03.720Z,1.10
2022-10-26T00:16:35.621Z,1.00
2022-10-26T00:19:03.410Z,1.10
2022-10-26T00:21:31.240Z,0.90
2022-10-26T00:24:02.294Z,1.00
2022-10-26T00:26:30.109Z,1.10
2022-10-26T00:28:59.253Z,1.13
2022-10-26T00:31:31.318Z,1.20
2022-10-26T00:33:59.238Z,1.30
2022-10-26T00:36:27.572Z,1.00
2022-10-26T00:38:59.978Z,0.97
2022-10-26T00:41:30.749Z,0.97
2022-10-26T00:44:03.724Z,0.77
2022-10-26T00:46:35.694Z,0.70
2022-10-26T00:49:13.088Z,0.90
2022-10-26T00:51:45.497Z,0.63
2022-10-26T00:54:21.039Z,0.70
2022-10-26T00:56:53.167Z,0.80
2022-10-26T00:59:27.010Z,0.60
2022-10-26T01:01:54.952Z,0.80
2022-10-26T01:04:22.947Z,0.60
2022-10-26T01:06:53.254Z,0.60
2022-10-26T01:09:21.949Z,0.60
2022-10-26T01:11:49.708Z,0.40
2022-10-26T01:14:22.864Z,0.40
2022-10-26T01:17:01.437Z,0.33
2022-10-26T01:20:29.963Z,0.40
2022-10-26T01:23:03.790Z,0.43
2022-10-26T01:25:53.960Z,0.43
2022-10-26T01:28:41.413Z,0.40
2022-10-26T01:31:18.960Z,0.50
2022-10-26T01:33:52.291Z,0.40
2022-10-26T01:39:12.059Z,0.43
2022-10-26T01:41:49.348Z,0.60
2022-10-26T01:44:21.739Z,0.40
2022-10-26T01:46:57.623Z,0.47
2022-10-26T01:49:29.977Z,0.53
2022-10-26T01:52:01.778Z,0.40
2022-10-26T01:54:29.740Z,0.60
2022-10-26T01:57:04.336Z,0.60
2022-10-26T01:59:58.978Z,0.40
2022-10-26T02:03:01.387Z,0.40
2022-10-26T02:05:37.942Z,0.43
2022-10-26T02:08:20.316Z,0.80
2022-10-26T02:11:06.086Z,0.50
2022-10-26T02:13:45.636Z,0.30
2022-10-26T02:16:22.600Z,0.30
2022-10-26T02:19:03.873Z,0.30
2022-10-26T02:21:38.151Z,0.30
2022-10-26T02:24:09.825Z,0.20
2022-10-26T02:26:42.141Z,0.40
2022-10-26T02:29:15.428Z,0.40
2022-10-26T02:31:46.499Z,0.33
2022-10-26T02:34:25.489Z,0.40
2022-10-26T02:36:58.791Z,0.40
2022-10-26T02:39:30.341Z,0.23
2022-10-26T02:42:04.205Z,0.30
2022-10-26T02:44:37.930Z,0.30
2022-10-26T02:47:07.785Z,0.20
2022-10-26T02:49:37.215Z,0.25
2022-10-26T02:52:12.342Z,0.30
2022-10-26T02:54:51.145Z,0.27
2022-10-26T02:57:23.764Z,0.50
2022-10-26T02:59:55.230Z,0.30
2022-10-26T03:02:24.045Z,0.30
2022-10-26T03:04:56.301Z,0.63
2022-10-26T03:07:27.187Z,0.40
2022-10-26T03:09:54.962Z,0.60
2022-10-26T03:12:24.599Z,0.57
2022-10-26T03:14:54.606Z,0.50
2022-10-26T03:17:22.558Z,0.60
2022-10-26T03:19:52.262Z,0.50
2022-10-26T03:22:23.867Z,0.40
2022-10-26T03:24:51.773Z,0.40
2022-10-26T03:27:19.691Z,0.40
2022-10-26T03:29:47.511Z,0.53
2022-10-26T03:32:15.455Z,0.53
2022-10-26T03:34:45.094Z,0.63
2022-10-26T03:37:12.989Z,0.50
2022-10-26T03:39:44.036Z,0.50
2022-10-26T03:42:11.985Z,0.60
2022-10-26T03:44:39.885Z,0.57
2022-10-26T03:47:09.902Z,0.30
2022-10-26T03:49:39.543Z,0.30
2022-10-26T03:52:07.351Z,0.30
2022-10-26T03:54:37.246Z,0.40
2022-10-26T03:57:06.584Z,0.30
2022-10-26T03:59:34.329Z,0.43
2022-10-26T04:02:04.372Z,0.33
2022-10-26T04:04:34.144Z,0.32
2022-10-26T04:07:01.890Z,0.30
2022-10-26T04:09:31.850Z,0.33
2022-10-26T04:12:01.894Z,0.50
2022-10-26T04:14:31.053Z,0.30
2022-10-26T04:16:58.800Z,0.30
2022-10-26T04:19:30.567Z,0.40
2022-10-26T04:21:58.367Z,0.83
2022-10-26T04:24:26.390Z,0.53
2022-10-26T04:26:58.284Z,0.30
2022-10-26T04:29:26.065Z,0.60
2022-10-26T04:31:55.336Z,0.83
2022-10-26T04:34:27.160Z,0.80
2022-10-26T04:36:56.066Z,0.70
2022-10-26T04:39:23.964Z,0.80
2022-10-26T04:41:58.670Z,0.83
2022-10-26T04:44:26.475Z,0.90
2022-10-26T04:46:58.106Z,1.00
2022-10-26T04:49:27.754Z,1.10
2022-10-26T04:51:55.757Z,1.17
2022-10-26T04:54:25.754Z,1.00
2022-10-26T04:56:55.380Z,1.23
2022-10-26T04:59:23.169Z,1.65
2022-10-26T05:01:53.277Z,1.67
2022-10-26T05:04:24.850Z,1.77
2022-10-26T05:06:53.536Z,1.60
2022-10-26T05:09:23.352Z,2.23
2022-10-26T05:11:53.032Z,1.80
2022-10-26T05:14:20.818Z,1.90
2022-10-26T05:16:52.041Z,2.07
2022-10-26T05:19:21.634Z,1.90
2022-10-26T05:21:53.485Z,2.17
2022-10-26T05:24:21.650Z,2.40
2022-10-26T05:26:49.536Z,2.27
2022-10-26T05:29:19.461Z,2.37
2022-10-26T05:31:47.188Z,2.03
2022-10-26T05:34:16.910Z,1.90
2022-10-26T05:36:46.819Z,1.98
2022-10-26T05:39:16.077Z,2.00
2022-10-26T05:41:45.803Z,2.37
2022-10-26T05:44:15.803Z,2.20
2022-10-26T05:46:43.882Z,1.92
2022-10-26T05:49:13.603Z,2.37
2022-10-26T05:51:43.569Z,1.80
2022-10-26T05:54:13.772Z,2.00
2022-10-26T05:59:19.176Z,1.70
2022-10-26T06:02:02.655Z,1.70
2022-10-26T06:04:39.266Z,2.00
2022-10-26T06:07:14.883Z,1.70
2022-10-26T06:09:45.590Z,1.50
2022-10-26T06:12:19.789Z,1.83
2022-10-26T06:14:50.559Z,1.80
2022-10-26T06:17:41.976Z,2.10
2022-10-26T06:20:26.341Z,1.60
2022-10-26T06:23:08.650Z,1.70
2022-10-26T06:25:47.658Z,1.70
2022-10-26T06:28:29.718Z,1.60
2022-10-26T06:30:59.726Z,2.00
2022-10-26T06:33:29.902Z,1.77
2022-10-26T06:36:11.923Z,1.90
2022-10-26T06:38:44.598Z,1.50
2022-10-26T06:41:20.795Z,1.90
2022-10-26T06:43:53.001Z,1.80
2022-10-26T06:46:32.946Z,2.03
2022-10-26T06:49:09.878Z,1.75
2022-10-26T06:51:46.546Z,1.50
2022-10-26T06:54:21.107Z,1.63
2022-10-26T06:56:54.441Z,1.60
2022-10-26T06:59:34.612Z,1.40
2022-10-26T07:02:05.623Z,1.38
2022-10-26T07:04:34.654Z,1.50
2022-10-26T07:07:02.595Z,1.10
2022-10-26T07:09:34.463Z,1.00
2022-10-26T07:12:02.423Z,1.07
2022-10-26T07:14:33.839Z,1.23
2022-10-26T07:17:06.393Z,0.90
2022-10-26T07:19:34.335Z,0.93
2022-10-26T07:22:02.075Z,0.90
2022-10-26T07:24:33.762Z,0.80
2022-10-26T07:27:01.537Z,0.80
2022-10-26T07:29:31.573Z,0.70
2022-10-26T07:32:03.701Z,0.73
2022-10-26T07:34:31.498Z,0.70
2022-10-26T07:37:00.738Z,0.60
2022-10-26T07:39:34.852Z,0.80
2022-10-26T07:42:02.690Z,0.70
2022-10-26T07:44:33.927Z,0.77
2022-10-26T07:47:03.996Z,0.90
2022-10-26T07:49:31.817Z,0.45
2022-10-26T07:52:01.745Z,0.53
2022-10-26T07:54:31.569Z,0.60
2022-10-26T07:56:59.786Z,0.70
2022-10-26T07:59:31.148Z,0.67
2022-10-26T08:02:00.979Z,0.60
2022-10-26T08:04:28.932Z,0.57
2022-10-26T08:06:58.806Z,0.60
2022-10-26T08:09:28.523Z,0.77
2022-10-26T08:11:56.421Z,0.60
2022-10-26T08:14:26.330Z,0.70
2022-10-26T08:16:55.588Z,0.90
2022-10-26T08:19:23.436Z,0.97
2022-10-26T08:21:53.363Z,1.47
2022-10-26T08:24:23.057Z,1.30
2022-10-26T08:26:50.879Z,1.60
2022-10-26T08:29:20.834Z,1.20
2022-10-26T08:31:50.960Z,1.13
2022-10-26T08:34:20.109Z,1.20
2022-10-26T08:36:48.010Z,1.10
2022-10-26T08:39:16.211Z,1.10
2022-10-26T08:41:46.009Z,1.33
2022-10-26T08:44:25.295Z,0.70
2022-10-26T08:46:57.070Z,0.80
2022-10-26T08:49:30.715Z,0.90
2022-10-26T08:52:02.928Z,0.80
2022-10-26T08:54:40.997Z,1.03
2022-10-26T08:57:17.910Z,0.80
2022-10-26T08:59:52.077Z,0.83
2022-10-26T09:02:20.041Z,0.80
2022-10-26T09:04:49.649Z,0.60
2022-10-26T09:07:32.315Z,0.60
2022-10-26T09:10:10.922Z,0.50
2022-10-26T09:12:49.277Z,0.60
2022-10-26T09:15:26.742Z,0.50
2022-10-26T09:18:03.575Z,0.60
2022-10-26T09:20:57.193Z,0.50
2022-10-26T09:23:41.304Z,0.50
2022-10-26T09:26:15.036Z,0.40
2022-10-26T09:28:50.122Z,0.40
2022-10-26T09:31:20.781Z,0.40
2022-10-26T09:33:48.961Z,0.50
2022-10-26T09:36:24.295Z,0.30
2022-10-26T09:38:58.084Z,0.30
2022-10-26T09:41:31.998Z,0.50
2022-10-26T09:44:06.741Z,0.40
2022-10-26T09:46:44.950Z,0.60
2022-10-26T09:49:16.901Z,0.30
2022-10-26T09:51:48.318Z,0.40
2022-10-26T09:54:18.907Z,0.43
2022-10-26T09:56:53.237Z,0.40
2022-10-26T09:59:24.328Z,0.50
2022-10-26T10:01:56.197Z,0.40
2022-10-26T10:04:24.853Z,0.60
2022-10-26T10:07:14.873Z,0.40
2022-10-26T10:09:44.779Z,0.40
2022-10-26T10:12:23.439Z,0.35
2022-10-26T10:14:59.628Z,0.23
2022-10-26T10:17:28.257Z,0.43
2022-10-26T10:19:56.087Z,0.60
2022-10-26T10:22:27.762Z,0.40
2022-10-26T10:24:59.245Z,0.20
2022-10-26T10:27:30.285Z,0.40
2022-10-26T10:30:04.245Z,0.40
2022-10-26T10:32:38.644Z,0.20
2022-10-26T10:35:27.340Z,0.30
2022-10-26T10:37:58.860Z,0.40
2022-10-26T10:40:31.143Z,0.40
2022-10-26T10:43:12.359Z,0.40
2022-10-26T10:45:43.404Z,0.50
2022-10-26T10:48:17.553Z,0.40
2022-10-26T10:50:57.696Z,0.50
2022-10-26T10:53:32.554Z,0.35
2022-10-26T10:56:21.125Z,0.40
2022-10-26T10:59:00.536Z,0.30
2022-10-26T11:01:35.373Z,0.37
2022-10-26T11:04:16.411Z,0.40
2022-10-26T11:06:48.213Z,0.60
2022-10-26T11:09:21.038Z,0.50
2022-10-26T11:11:54.282Z,0.47
2022-10-26T11:14:29.189Z,1.30
2022-10-26T11:17:02.530Z,0.40
2022-10-26T11:19:36.472Z,0.50
2022-10-26T11:22:07.646Z,0.50
2022-10-26T11:24:41.992Z,0.60
2022-10-26T11:27:17.196Z,0.60
2022-10-26T11:29:53.614Z,0.70
2022-10-26T11:32:24.338Z,0.50
2022-10-26T11:35:01.083Z,0.60
2022-10-26T11:37:35.568Z,0.47
2022-10-26T11:40:17.340Z,0.50
2022-10-26T11:42:51.391Z,0.57
2022-10-26T11:45:26.037Z,0.50
2022-10-26T11:47:58.665Z,0.80
2022-10-26T11:50:31.473Z,0.50
2022-10-26T11:53:02.014Z,0.43
2022-10-26T11:57:59.579Z,0.40
2022-10-26T12:00:33.200Z,0.50
2022-10-26T12:03:08.510Z,0.40
2022-10-26T12:05:46.149Z,0.60
2022-10-26T12:08:19.710Z,0.63
2022-10-26T12:10:58.478Z,0.50
2022-10-26T12:13:36.447Z,0.60
2022-10-26T12:16:12.148Z,0.50
2022-10-26T12:18:55.959Z,0.70
2022-10-26T12:21:30.397Z,0.60
2022-10-26T12:24:02.262Z,0.60
2022-10-26T12:26:43.264Z,1.70
2022-10-26T12:29:24.041Z,2.37
2022-10-26T12:31:52.064Z,0.77
2022-10-26T12:34:25.367Z,0.67
2022-10-26T12:37:23.995Z,0.80
2022-10-26T12:39:52.394Z,0.60
2022-10-26T12:42:33.161Z,0.70
2022-10-26T12:45:17.908Z,0.43
2022-10-26T12:48:15.619Z,0.63
2022-10-26T12:50:55.123Z,0.50
2022-10-26T12:53:23.606Z,0.70
2022-10-26T12:56:12.178Z,0.60
2022-10-26T12:59:21.423Z,1.07
2022-10-26T13:02:04.107Z,0.87
2022-10-26T13:05:08.155Z,0.80
2022-10-26T13:07:38.567Z,0.97
2022-10-26T13:10:18.723Z,0.90
2022-10-26T13:12:50.974Z,0.80
2022-10-26T13:15:26.630Z,0.97
2022-10-26T13:18:00.944Z,0.70
2022-10-26T13:20:31.276Z,0.63
2022-10-26T13:22:59.403Z,0.77
2022-10-26T13:25:29.594Z,0.80
2022-10-26T13:28:05.985Z,0.70
2022-10-26T13:30:47.711Z,0.87
2022-10-26T13:33:23.279Z,0.70
2022-10-26T13:35:54.380Z,0.73
2022-10-26T13:38:25.572Z,0.90
2022-10-26T13:41:03.747Z,1.00
2022-10-26T13:43:33.820Z,1.10
2022-10-26T13:46:04.979Z,1.92
2022-10-26T13:48:39.802Z,1.53
2022-10-26T13:51:20.148Z,1.80
2022-10-26T13:53:53.859Z,2.10
2022-10-26T13:56:29.509Z,2.17
2022-10-26T13:59:03.051Z,2.07
2022-10-26T14:01:33.686Z,2.10
2022-10-26T14:04:15.932Z,2.50
2022-10-26T14:07:00.537Z,1.97
2022-10-26T14:09:31.757Z,2.00
2022-10-26T14:12:02.211Z,2.13
2022-10-26T14:17:03.699Z,2.63
2022-10-26T14:19:39.241Z,2.30
2022-10-26T14:22:11.185Z,2.30
2022-10-26T14:24:48.422Z,2.07
2022-10-26T14:27:17.452Z,2.43
2022-10-26T14:29:49.915Z,2.23
2022-10-26T14:32:27.547Z,2.17
2022-10-26T14:34:55.853Z,2.40
2022-10-26T14:37:40.117Z,2.10
2022-10-26T14:40:14.772Z,2.10
2022-10-26T14:42:45.976Z,2.03
2022-10-26T14:45:48.442Z,1.73
2022-10-26T14:48:30.587Z,1.83
2022-10-26T14:51:03.328Z,1.60
2022-10-26T14:53:36.863Z,1.73
2022-10-26T14:56:06.547Z,1.80
2022-10-26T14:58:37.824Z,1.70
2022-10-26T15:01:34.583Z,1.60
2022-10-26T15:04:09.082Z,1.50
2022-10-26T15:06:42.767Z,1.50
2022-10-26T15:09:47.138Z,1.50
2022-10-26T15:12:24.382Z,1.83
2022-10-26T15:14:53.110Z,1.40
2022-10-26T15:17:24.474Z,1.50
2022-10-26T15:19:54.502Z,1.50
2022-10-26T15:22:31.835Z,1.20
2022-10-26T15:25:05.408Z,1.70
2022-10-26T15:27:33.374Z,1.40
2022-10-26T15:30:15.658Z,1.40
2022-10-26T15:32:43.497Z,1.40
2022-10-26T15:35:33.774Z,1.40
2022-10-26T15:38:02.071Z,1.45
2022-10-26T15:40:32.359Z,1.23
2022-10-26T15:43:02.077Z,1.30
2022-10-26T15:45:33.166Z,1.27
2022-10-26T15:48:20.117Z,1.60
2022-10-26T15:50:49.409Z,1.50
2022-10-26T15:53:21.886Z,1.53
2022-10-26T15:55:50.387Z,1.40
2022-10-26T15:58:18.436Z,1.50
2022-10-26T16:00:46.901Z,1.40
2022-10-26T16:03:17.155Z,1.30
2022-10-26T16:06:05.314Z,1.40
2022-10-26T16:08:33.151Z,1.50
2022-10-26T16:11:01.027Z,1.40
2022-10-26T16:13:30.734Z,1.60
2022-10-26T16:15:58.731Z,1.30
2022-10-26T16:18:28.704Z,1.30
2022-10-26T16:20:58.331Z,1.58
2022-10-26T16:23:27.528Z,1.40
2022-10-26T16:25:57.532Z,1.47
2022-10-26T16:28:27.181Z,1.30
2022-10-26T16:31:00.257Z,1.08
2022-10-26T16:33:28.004Z,1.10
2022-10-26T16:36:01.726Z,1.03
2022-10-26T16:38:32.254Z,1.13
2022-10-26T16:43:33.593Z,1.30
2022-10-26T16:46:02.516Z,1.25
2022-10-26T16:48:32.178Z,1.30
2022-10-26T16:51:06.147Z,1.20
2022-10-26T16:53:37.313Z,1.30
2022-10-26T16:56:09.570Z,1.20
2022-10-26T16:58:37.795Z,1.37
2022-10-26T17:01:08.313Z,1.57
2022-10-26T17:03:38.367Z,1.17
2022-10-26T17:06:08.682Z,1.00
2022-10-26T17:08:40.320Z,1.00
2022-10-26T17:11:12.703Z,0.90
2022-10-26T17:13:43.267Z,1.00
2022-10-26T17:21:12.067Z,1.20
2022-10-26T17:23:43.285Z,1.20
2022-10-26T17:26:15.182Z,1.30
2022-10-26T17:28:43.422Z,1.37
2022-10-26T17:31:13.160Z,1.20
2022-10-26T17:33:45.163Z,0.90
2022-10-26T17:36:16.702Z,1.10
2022-10-26T17:38:46.004Z,1.10
2022-10-26T17:41:15.715Z,1.20
2022-10-26T17:43:44.851Z,1.10
2022-10-26T17:46:14.432Z,1.40
2022-10-26T17:48:46.758Z,1.30
2022-10-26T17:51:16.159Z,1.30
2022-10-26T17:53:51.772Z,1.33
2022-10-26T17:56:21.611Z,1.57
2022-10-26T17:58:57.036Z,1.40
2022-10-26T18:01:25.708Z,1.60
2022-10-26T18:03:54.606Z,2.03
2022-10-26T18:06:25.380Z,1.57
2022-10-26T18:11:27.580Z,1.50
2022-10-26T18:13:56.803Z,1.50
2022-10-26T18:16:26.579Z,1.20
2022-10-26T18:19:00.962Z,1.45
2022-10-26T18:21:31.698Z,1.00
2022-10-26T18:24:01.137Z,1.20
2022-10-26T18:26:32.928Z,1.13
2022-10-26T18:29:02.205Z,0.90
2022-10-26T18:31:36.871Z,1.10
2022-10-26T18:34:06.657Z,1.10
2022-10-26T18:39:09.295Z,1.67
2022-10-26T18:41:39.327Z,1.50
2022-10-26T18:44:07.739Z,1.58
2022-10-26T18:46:42.796Z,1.43
2022-10-26T18:49:17.259Z,1.50
2022-10-26T18:51:47.311Z,1.40
2022-10-26T18:54:17.259Z,1.45
2022-10-26T18:56:48.105Z,1.80
2022-10-26T18:59:20.937Z,1.70
2022-10-26T19:01:51.603Z,1.40
2022-10-26T19:04:22.835Z,1.30
2022-10-26T19:06:50.945Z,1.37
2022-10-26T19:09:27.955Z,1.50
2022-10-26T19:12:00.084Z,1.40
2022-10-26T19:14:36.087Z,1.80
2022-10-26T19:17:04.470Z,1.50
2022-10-26T19:19:35.446Z,1.60
2022-10-26T19:22:14.169Z,1.53
2022-10-26T19:24:47.694Z,1.23
2022-10-26T19:27:19.860Z,2.27
2022-10-26T19:29:49.972Z,1.73
2022-10-26T19:32:19.875Z,1.90
2022-10-26T19:34:57.163Z,1.73
2022-10-26T19:37:28.268Z,2.00
2022-10-26T19:40:04.419Z,1.90
2022-10-26T19:42:34.818Z,1.90
2022-10-26T19:45:05.267Z,2.17
2022-10-26T19:50:03.177Z,1.90
2022-10-26T19:52:33.537Z,1.97
2022-10-26T19:55:02.937Z,2.22
2022-10-26T19:57:30.879Z,2.10
2022-10-26T20:00:01.131Z,1.97
2022-10-26T20:02:30.943Z,2.00
2022-10-26T20:05:01.213Z,2.90
2022-10-26T20:07:31.327Z,2.85
2022-10-26T20:10:00.759Z,3.28
2022-10-26T20:12:30.036Z,3.67
2022-10-26T20:15:00.107Z,3.57
2022-10-26T20:17:28.704Z,3.15
2022-10-26T20:19:57.111Z,3.77
2022-10-26T20:22:28.197Z,3.80
2022-10-26T20:24:58.177Z,3.60
2022-10-26T20:27:26.061Z,3.22
2022-10-26T20:29:58.239Z,3.70
2022-10-26T20:32:26.195Z,3.47
2022-10-26T20:35:02.462Z,3.67
2022-10-26T20:37:32.905Z,3.87
2022-10-26T20:42:29.800Z,3.67
2022-10-26T20:45:05.131Z,3.63
2022-10-26T20:47:33.682Z,3.17
2022-10-26T20:50:02.001Z,2.77
2022-10-26T20:52:37.379Z,3.30
2022-10-26T20:55:15.140Z,2.60
2022-10-26T20:57:53.387Z,3.43
2022-10-26T21:00:25.458Z,3.30
2022-10-26T21:02:53.313Z,2.53
2022-10-26T21:05:24.402Z,2.60
2022-10-26T21:07:54.505Z,2.70
2022-10-26T21:10:22.497Z,2.67
2022-10-26T21:12:50.586Z,2.60
2022-10-26T21:15:18.718Z,2.50
2022-10-26T21:17:48.001Z,2.17
2022-10-26T21:20:16.050Z,2.17
2022-10-26T21:22:45.943Z,2.30
2022-10-26T21:25:13.706Z,2.05
2022-10-26T21:27:43.441Z,2.07
2022-10-26T21:30:14.072Z,1.75
2022-10-26T21:32:45.705Z,2.43
2022-10-26T21:35:17.211Z,2.33
2022-10-26T21:37:45.073Z,2.47
2022-10-26T21:40:15.306Z,2.60
2022-10-26T21:42:50.650Z,2.40
2022-10-26T21:45:20.568Z,2.10
2022-10-26T21:47:52.777Z,1.90
2022-10-26T21:50:23.808Z,2.23
2022-10-26T21:52:54.026Z,2.10
2022-10-26T21:55:21.805Z,2.10
2022-10-26T21:57:51.561Z,1.93
2022-10-26T22:00:21.684Z,1.80
2022-10-26T22:02:52.043Z,2.10
2022-10-26T22:07:51.163Z,2.20
2022-10-26T22:10:19.236Z,2.57
2022-10-26T22:12:48.912Z,2.33
2022-10-26T22:15:16.891Z,2.15
2022-10-26T22:17:46.992Z,2.27
2022-10-26T22:20:14.946Z,2.15
2022-10-26T22:22:44.199Z,2.70
2022-10-26T22:25:14.274Z,2.40
2022-10-26T22:27:44.037Z,2.20
2022-10-26T22:30:13.150Z,2.13
2022-10-26T22:32:43.172Z,2.40
2022-10-26T22:35:28.605Z,2.20
2022-10-26T22:38:00.997Z,2.33
2022-10-26T22:40:30.775Z,2.73
2022-10-26T22:42:58.511Z,2.80
2022-10-26T22:45:28.517Z,2.80
2022-10-26T22:47:58.850Z,2.60
2022-10-26T22:50:26.688Z,2.70
2022-10-26T22:52:57.981Z,2.40
2022-10-26T22:55:25.911Z,2.30
2022-10-26T22:57:55.161Z,2.17
2022-10-26T23:00:25.123Z,2.20
2022-10-26T23:02:54.811Z,2.10
2022-10-26T23:05:22.556Z,2.38
2022-10-26T23:07:53.166Z,2.03
2022-10-26T23:10:24.942Z,2.47
2022-10-26T23:12:54.103Z,2.70
2022-10-26T23:15:22.012Z,2.40
2022-10-26T23:17:52.171Z,2.33
2022-10-26T23:20:22.548Z,2.08
2022-10-26T23:22:50.496Z,1.85
2022-10-26T23:25:20.360Z,2.03
2022-10-26T23:27:51.390Z,2.13
2022-10-26T23:30:19.501Z,2.00
2022-10-26T23:32:49.520Z,2.00
2022-10-26T23:35:19.971Z,1.85
2022-10-26T23:37:47.771Z,1.63
2022-10-26T23:40:17.968Z,1.90
2022-10-26T23:42:49.657Z,1.88
2022-10-26T23:45:17.723Z,1.90
2022-10-26T23:47:47.650Z,2.10
2022-10-26T23:50:16.247Z,2.08
2022-10-26T23:52:47.964Z,2.10
2022-10-26T23:55:17.984Z,2.03
2022-10-26T23:57:49.657Z,1.98
